Time;durP1;ratioP1;P1;durP2;ratioP2;P2;SDS_P1;SDS_P2;PMS_P1;PMS_P2;Temp;Humidity;BMP_temperature;BMP_pressure;BME280_temperature;BME280_humidity;BME280_pressure;Samples;Min_cycle;Max_cycle;Signal;HPM_P1;HPM_P2
2022/12/30 00:01:31;;;;;;;29.15;4.03;;;6.30;99.90;;;;;;5072866;28;20052;-80
2022/12/30 00:04:17;;;;;;;18.80;3.75;;;6.30;99.90;;;;;;5091310;28;20066;-77
2022/12/30 00:07:04;;;;;;;22.40;4.22;;;6.30;99.90;;;;;;5095829;28;20131;-78
2022/12/30 00:09:50;;;;;;;25.30;5.53;;;6.30;99.90;;;;;;5072265;28;20725;-82
2022/12/30 00:34:46;;;;;;;22.38;4.13;;;6.30;99.90;;;;;;5071277;28;19920;-81
2022/12/30 00:37:33;;;;;;;16.70;3.63;;;6.30;99.90;;;;;;5084091;28;20112;-79
2022/12/30 00:40:19;;;;;;;16.77;3.15;;;6.30;99.90;;;;;;5089705;28;20213;-79
2022/12/30 00:43:08;;;;;;;18.05;3.60;;;6.30;99.90;;;;;;5072994;28;20385;-85
2022/12/30 00:45:54;;;;;;;21.65;3.95;;;6.30;99.90;;;;;;5090259;28;20084;-80
2022/12/30 00:57:55;;;;;;;22.98;3.88;;;6.20;99.90;;;;;;5089463;28;20055;-78
2022/12/30 01:00:41;;;;;;;29.02;5.13;;;6.20;99.90;;;;;;5071128;28;20066;-82
2022/12/30 01:03:28;;;;;;;19.58;3.72;;;6.20;99.90;;;;;;5073478;28;20052;-84
2022/12/30 01:06:14;;;;;;;23.70;4.38;;;6.10;99.90;;;;;;5091776;28;20044;-77
2022/12/30 01:09:00;;;;;;;23.98;4.53;;;6.10;99.90;;;;;;5071472;28;20488;-76
2022/12/30 01:12:07;;;;;;;20.60;3.55;;;6.00;99.90;;;;;;5071676;28;20048;-80
2022/12/30 01:14:54;;;;;;;23.80;3.50;;;6.00;99.90;;;;;;5074544;28;20051;-80
2022/12/30 01:17:41;;;;;;;22.42;3.78;;;6.10;99.90;;;;;;5090059;28;20052;-78
2022/12/30 01:20:27;;;;;;;26.33;4.47;;;6.00;99.90;;;;;;5074981;28;20409;-81
2022/12/30 01:23:14;;;;;;;18.50;4.32;;;6.00;99.90;;;;;;5089387;28;20488;-81
2022/12/30 01:26:04;;;;;;;25.65;4.10;;;6.00;99.90;;;;;;5089851;28;20058;-80
2022/12/30 01:28:50;;;;;;;24.45;4.25;;;6.00;99.90;;;;;;5089213;28;20060;-83
2022/12/30 01:31:36;;;;;;;22.40;5.60;;;6.00;99.90;;;;;;5090831;28;20048;-79
2022/12/30 01:34:23;;;;;;;19.80;4.00;;;6.00;99.90;;;;;;5072628;28;20051;-78
2022/12/30 01:37:09;;;;;;;21.17;3.30;;;6.00;99.90;;;;;;5097993;28;20052;-80
2022/12/30 01:39:55;;;;;;;22.52;3.70;;;6.00;99.90;;;;;;5089995;28;20059;-83
2022/12/30 01:42:42;;;;;;;22.88;4.20;;;6.00;99.90;;;;;;5090520;28;20090;-83
2022/12/30 01:45:28;;;;;;;26.45;3.75;;;6.00;99.90;;;;;;5076627;28;20465;-79
2022/12/30 01:48:27;;;;;;;18.13;3.70;;;6.00;99.90;;;;;;5070260;28;20052;-78
2022/12/30 01:51:19;;;;;;;22.65;3.85;;;6.00;99.90;;;;;;5071218;28;20055;-78
2022/12/30 01:54:06;;;;;;;26.73;3.55;;;6.00;99.90;;;;;;5082242;28;20068;-80
2022/12/30 01:56:52;;;;;;;21.17;2.92;;;6.00;99.90;;;;;;5090076;28;20411;-78
2022/12/30 01:59:38;;;;;;;26.02;4.38;;;6.00;99.90;;;;;;5075271;28;20052;-79
2022/12/30 02:02:25;;;;;;;26.02;4.07;;;6.00;99.90;;;;;;5073030;28;20036;-80
2022/12/30 02:05:12;;;;;;;24.83;4.60;;;6.00;99.90;;;;;;5076730;28;20052;-78
2022/12/30 02:08:18;;;;;;;24.95;4.57;;;5.90;99.90;;;;;;5071031;28;20060;-79
2022/12/30 02:11:06;;;;;;;26.88;4.35;;;5.90;99.90;;;;;;5089576;28;20052;-78
2022/12/30 02:13:52;;;;;;;25.50;3.53;;;5.70;99.90;;;;;;5096270;28;20511;-84
2022/12/30 02:17:20;;;;;;;18.30;3.28;;;5.70;99.90;;;;;;5099107;28;20043;-79
2022/12/30 02:20:27;;;;;;;27.40;4.95;;;5.60;99.90;;;;;;5072587;28;20058;-78
2022/12/30 02:23:31;;;;;;;20.95;4.07;;;5.60;99.90;;;;;;5074228;28;20062;-78
2022/12/30 02:26:55;;;;;;;19.92;4.28;;;5.60;99.90;;;;;;5093189;28;20055;-81
2022/12/30 02:30:02;;;;;;;30.55;4.80;;;5.50;99.90;;;;;;5074109;28;20508;-77
2022/12/30 02:33:10;;;;;;;24.40;3.88;;;5.50;99.90;;;;;;5092346;28;20044;-78
2022/12/30 02:36:08;;;;;;;19.88;3.88;;;5.40;99.90;;;;;;5092471;28;20036;-78
2022/12/30 02:39:28;;;;;;;18.80;3.72;;;5.40;99.90;;;;;;5092075;28;20063;-79
2022/12/30 02:45:56;;;;;;;20.98;3.83;;;5.30;99.90;;;;;;5092449;28;20105;-77
2022/12/30 02:48:47;;;;;;;16.30;3.67;;;5.40;99.90;;;;;;5064417;28;20052;-79
2022/12/30 02:54:39;;;;;;;24.77;4.57;;;5.40;99.90;;;;;;5094465;28;20065;-78
2022/12/30 02:57:31;;;;;;;20.92;4.35;;;5.40;99.90;;;;;;5079732;28;20088;-77
2022/12/30 03:06:54;;;;;;;31.95;5.30;;;5.30;99.90;;;;;;5091067;28;20483;-78
2022/12/30 03:13:09;;;;;;;22.15;3.40;;;5.30;99.90;;;;;;5072937;28;20056;-78
2022/12/30 03:16:17;;;;;;;27.63;4.57;;;5.30;99.90;;;;;;5072956;28;20117;-79
2022/12/30 03:19:08;;;;;;;19.48;4.28;;;5.30;99.90;;;;;;5092076;28;20056;-77
2022/12/30 03:21:56;;;;;;;21.92;4.85;;;5.30;99.90;;;;;;5091552;28;20048;-78
2022/12/30 03:28:10;;;;;;;20.83;4.15;;;5.30;99.90;;;;;;5049668;28;20048;-79
2022/12/30 03:31:09;;;;;;;18.50;4.40;;;5.40;99.90;;;;;;5093759;28;20105;-78
2022/12/30 03:33:55;;;;;;;18.83;3.50;;;5.40;99.90;;;;;;5097609;28;20112;-78
2022/12/30 03:36:46;;;;;;;21.75;4.50;;;5.40;99.90;;;;;;5072958;28;20412;-78
2022/12/30 03:39:37;;;;;;;21.20;3.60;;;5.40;99.90;;;;;;5073222;28;20141;-77
2022/12/30 03:42:24;;;;;;;35.30;4.65;;;5.40;99.90;;;;;;5072978;28;20044;-78
2022/12/30 03:45:11;;;;;;;16.33;3.78;;;5.40;99.90;;;;;;5073114;28;20047;-78
2022/12/30 03:47:57;;;;;;;35.88;5.47;;;5.40;99.90;;;;;;5091291;28;20479;-79
2022/12/30 03:50:44;;;;;;;27.27;4.85;;;5.40;99.90;;;;;;5091262;28;20052;-83
2022/12/30 03:53:30;;;;;;;26.25;5.65;;;5.40;99.90;;;;;;5090063;28;20535;-80
2022/12/30 03:56:17;;;;;;;31.50;3.53;;;5.50;99.90;;;;;;5072813;28;20535;-80
2022/12/30 03:59:03;;;;;;;36.65;4.15;;;5.50;99.90;;;;;;5089762;28;20052;-81
2022/12/30 04:01:49;;;;;;;17.55;3.83;;;5.40;99.90;;;;;;5091078;28;20122;-82
2022/12/30 04:04:36;;;;;;;24.48;4.40;;;5.40;99.90;;;;;;5090471;28;20048;-80
2022/12/30 04:07:22;;;;;;;33.00;4.53;;;5.40;99.90;;;;;;5073304;28;20055;-76
2022/12/30 04:10:08;;;;;;;25.42;3.60;;;5.40;99.90;;;;;;5093418;28;20063;-84
2022/12/30 04:12:55;;;;;;;25.17;4.25;;;5.40;99.90;;;;;;5096474;28;20139;-85
2022/12/30 04:15:41;;;;;;;33.67;4.97;;;5.40;99.90;;;;;;5077628;28;20055;-78
2022/12/30 04:18:27;;;;;;;25.52;4.40;;;5.30;99.90;;;;;;5073407;28;20079;-80
2022/12/30 04:21:13;;;;;;;19.70;4.10;;;5.30;99.90;;;;;;5091191;28;20048;-79
2022/12/30 04:23:59;;;;;;;27.35;5.05;;;5.30;99.90;;;;;;5090733;28;20054;-77
2022/12/30 04:26:45;;;;;;;20.17;4.60;;;5.30;99.90;;;;;;5073511;28;20142;-79
2022/12/30 04:29:31;;;;;;;29.10;4.90;;;5.30;99.90;;;;;;5075652;28;20057;-82
2022/12/30 04:32:18;;;;;;;30.88;4.32;;;5.30;99.90;;;;;;5072245;28;20105;-79
2022/12/30 04:35:04;;;;;;;28.45;6.28;;;5.30;99.90;;;;;;5057940;28;20140;-79
2022/12/30 04:37:51;;;;;;;25.58;4.63;;;5.20;99.90;;;;;;5089730;28;20090;-79
2022/12/30 04:40:37;;;;;;;27.85;5.78;;;5.20;99.90;;;;;;5057317;28;20116;-81
2022/12/30 04:43:23;;;;;;;35.20;5.90;;;5.20;99.90;;;;;;5072636;28;20043;-79
2022/12/30 04:46:09;;;;;;;32.17;6.07;;;5.20;99.90;;;;;;5090135;28;20563;-77
2022/12/30 04:48:56;;;;;;;27.02;6.65;;;5.30;99.90;;;;;;5071634;28;20059;-76
2022/12/30 04:51:42;;;;;;;28.15;7.20;;;5.30;99.90;;;;;;5072000;28;20044;-76
2022/12/30 04:54:28;;;;;;;31.02;6.57;;;5.30;99.90;;;;;;5072021;28;20056;-78
2022/12/30 04:57:15;;;;;;;26.30;5.80;;;5.40;99.90;;;;;;5073234;28;20052;-82
2022/12/30 05:00:03;;;;;;;29.75;6.00;;;5.50;99.90;;;;;;5081091;28;20051;-78
2022/12/30 05:02:49;;;;;;;28.73;7.32;;;5.50;99.90;;;;;;5072333;28;20051;-83
2022/12/30 05:05:35;;;;;;;29.80;7.68;;;5.50;99.90;;;;;;5072275;28;20102;-80
2022/12/30 05:08:22;;;;;;;25.33;7.57;;;5.60;99.90;;;;;;5090030;28;20048;-85
2022/12/30 05:11:10;;;;;;;27.10;7.07;;;5.50;99.90;;;;;;5071772;28;20052;-82
2022/12/30 05:13:56;;;;;;;38.65;8.20;;;5.50;99.90;;;;;;5090618;28;20107;-84
2022/12/30 05:16:42;;;;;;;29.98;6.40;;;5.50;99.90;;;;;;5090574;28;20452;-81
2022/12/30 05:19:28;;;;;;;33.38;9.25;;;5.50;99.90;;;;;;5072142;28;20056;-83
2022/12/30 05:22:15;;;;;;;26.40;7.57;;;5.60;99.90;;;;;;5071775;28;20567;-81
2022/12/30 05:28:06;;;;;;;26.65;8.68;;;5.70;99.90;;;;;;5070923;28;20055;-78
2022/12/30 05:30:52;;;;;;;30.00;9.30;;;5.80;99.90;;;;;;5089223;28;20526;-79
2022/12/30 05:33:38;;;;;;;32.03;7.88;;;5.80;99.90;;;;;;5071184;28;20415;-79
2022/12/30 05:36:25;;;;;;;24.45;7.88;;;5.80;99.90;;;;;;5088655;28;20050;-82
2022/12/30 05:39:12;;;;;;;22.27;7.75;;;5.90;99.90;;;;;;5088335;28;20098;-79
2022/12/30 05:41:58;;;;;;;26.02;9.55;;;5.90;99.90;;;;;;5088992;28;20403;-81
2022/12/30 05:44:45;;;;;;;28.35;10.30;;;5.90;99.90;;;;;;5089610;28;20044;-79
2022/12/30 05:47:31;;;;;;;28.50;8.93;;;5.90;99.90;;;;;;5070839;28;20567;-81
2022/12/30 05:50:18;;;;;;;31.92;9.82;;;5.90;99.90;;;;;;5075262;28;20105;-83
2022/12/30 05:53:04;;;;;;;33.53;10.30;;;5.90;99.90;;;;;;5073981;28;20056;-77
2022/12/30 05:55:50;;;;;;;30.27;10.35;;;5.90;99.90;;;;;;5075280;28;20044;-83
2022/12/30 05:58:36;;;;;;;26.73;9.50;;;6.00;99.90;;;;;;5074538;28;20420;-82
2022/12/30 06:01:23;;;;;;;24.83;8.65;;;6.00;99.90;;;;;;5092676;28;20059;-82
2022/12/30 06:04:09;;;;;;;26.35;8.23;;;6.00;99.90;;;;;;5092566;28;20144;-80
2022/12/30 06:06:55;;;;;;;22.00;7.72;;;6.00;99.90;;;;;;5093350;28;20128;-78
2022/12/30 06:09:41;;;;;;;23.75;8.10;;;6.00;99.90;;;;;;5091707;28;20052;-83
2022/12/30 06:12:27;;;;;;;25.27;8.18;;;5.90;99.90;;;;;;5075321;28;20105;-85
2022/12/30 06:15:13;;;;;;;23.08;6.90;;;5.90;99.90;;;;;;5061154;28;20082;-80
2022/12/30 06:17:59;;;;;;;17.58;6.65;;;5.90;99.90;;;;;;5077967;28;20052;-84
2022/12/30 06:20:47;;;;;;;35.55;8.15;;;5.90;99.90;;;;;;5084026;28;20063;-77
2022/12/30 06:23:33;;;;;;;23.60;8.30;;;6.00;99.90;;;;;;5074493;28;20048;-81
2022/12/30 06:26:19;;;;;;;31.88;8.40;;;6.00;99.90;;;;;;5091861;28;20120;-84
2022/12/30 06:29:05;;;;;;;21.15;6.80;;;6.00;99.90;;;;;;5073181;28;20056;-80
2022/12/30 06:31:51;;;;;;;24.45;7.60;;;5.90;99.90;;;;;;5073519;28;20143;-82
2022/12/30 06:34:38;;;;;;;21.77;7.85;;;5.90;99.90;;;;;;5073583;28;20052;-80
2022/12/30 06:37:24;;;;;;;24.58;8.73;;;6.00;99.90;;;;;;5092817;28;20047;-78
2022/12/30 06:40:11;;;;;;;28.52;8.23;;;6.00;99.90;;;;;;5091692;28;20816;-80
2022/12/30 06:42:57;;;;;;;18.15;7.63;;;6.00;99.90;;;;;;5091723;28;20048;-84
2022/12/30 06:45:43;;;;;;;21.02;8.13;;;6.00;99.90;;;;;;5092567;28;20144;-82
2022/12/30 06:48:30;;;;;;;24.73;6.97;;;6.00;99.90;;;;;;5091669;28;20058;-82
2022/12/30 06:51:16;;;;;;;21.13;6.68;;;6.00;99.90;;;;;;5074425;28;20055;-80
2022/12/30 06:54:02;;;;;;;18.77;7.30;;;6.00;99.90;;;;;;5073404;28;20572;-79
2022/12/30 06:56:48;;;;;;;25.50;6.65;;;5.90;99.90;;;;;;5073532;28;20143;-79
2022/12/30 06:59:35;;;;;;;20.55;6.60;;;5.90;99.90;;;;;;5072606;28;20416;-80
2022/12/30 07:02:21;;;;;;;22.38;7.28;;;5.80;99.90;;;;;;5095201;28;20063;-83
2022/12/30 07:05:08;;;;;;;16.75;5.47;;;5.70;99.90;;;;;;5099925;28;20044;-80
2022/12/30 07:07:54;;;;;;;18.98;5.35;;;5.70;99.90;;;;;;5073739;28;20054;-77
2022/12/30 07:10:41;;;;;;;15.70;5.43;;;5.60;99.90;;;;;;5071041;28;20056;-80
2022/12/30 07:13:28;;;;;;;22.73;5.53;;;5.50;99.90;;;;;;5086653;28;20434;-84
2022/12/30 07:16:14;;;;;;;22.75;5.70;;;5.40;99.90;;;;;;5091242;28;20052;-79
2022/12/30 07:19:01;;;;;;;23.77;6.25;;;5.30;99.90;;;;;;5092121;28;20051;-81
2022/12/30 07:21:47;;;;;;;19.42;4.97;;;5.20;99.90;;;;;;5058741;28;20055;-81
2022/12/30 07:24:33;;;;;;;22.45;5.78;;;5.10;99.90;;;;;;5071821;28;20166;-80
2022/12/30 07:27:19;;;;;;;14.80;5.63;;;5.00;99.90;;;;;;5077123;28;20040;-78
2022/12/30 07:30:06;;;;;;;22.85;5.32;;;4.90;99.90;;;;;;5090882;28;20492;-77
2022/12/30 07:32:52;;;;;;;26.13;6.88;;;4.90;99.90;;;;;;5092273;28;20123;-83
2022/12/30 07:35:39;;;;;;;15.38;5.35;;;4.80;99.90;;;;;;5081191;28;20408;-77
2022/12/30 07:38:25;;;;;;;24.70;5.40;;;4.80;99.90;;;;;;5097761;28;20048;-81
2022/12/30 07:41:12;;;;;;;25.02;6.28;;;4.80;99.90;;;;;;5072623;28;20511;-83
2022/12/30 07:43:59;;;;;;;22.00;5.25;;;4.70;99.90;;;;;;5090844;28;20039;-82
2022/12/30 07:46:45;;;;;;;19.48;6.00;;;4.70;99.90;;;;;;5073123;28;20048;-80
2022/12/30 07:49:31;;;;;;;19.17;5.28;;;4.70;99.90;;;;;;5091559;28;20118;-77
2022/12/30 07:52:17;;;;;;;19.55;5.05;;;4.70;99.90;;;;;;5090231;28;20496;-78
2022/12/30 07:55:04;;;;;;;19.80;5.57;;;4.60;99.90;;;;;;5073278;28;20594;-79
2022/12/30 07:57:50;;;;;;;20.98;4.97;;;4.60;99.90;;;;;;5090852;28;20102;-79
2022/12/30 08:00:36;;;;;;;18.45;5.60;;;4.60;99.90;;;;;;5091046;28;20059;-79
2022/12/30 08:03:23;;;;;;;19.63;4.55;;;4.60;99.90;;;;;;5092194;28;20102;-79
2022/12/30 08:06:12;;;;;;;16.63;4.18;;;4.60;99.90;;;;;;5081974;28;20105;-80
2022/12/30 08:09:02;;;;;;;26.15;4.80;;;4.60;99.90;;;;;;5058842;28;20052;-85
2022/12/30 08:11:49;;;;;;;22.55;4.50;;;4.60;99.90;;;;;;5071262;28;20052;-81
2022/12/30 08:14:35;;;;;;;23.70;4.93;;;4.60;99.90;;;;;;5090683;28;20048;-82
2022/12/30 08:17:21;;;;;;;17.85;3.75;;;4.60;99.90;;;;;;5090278;28;20098;-79
2022/12/30 08:20:10;;;;;;;16.38;3.83;;;4.60;99.90;;;;;;5073122;28;20137;-82
2022/12/30 08:22:56;;;;;;;19.77;4.20;;;4.60;99.90;;;;;;5071286;28;20048;-77
2022/12/30 08:25:43;;;;;;;14.55;3.90;;;4.60;99.90;;;;;;5092862;28;20057;-78
2022/12/30 08:28:29;;;;;;;25.85;4.03;;;4.60;99.90;;;;;;5090437;28;20048;-80
2022/12/30 08:31:19;;;;;;;23.60;4.55;;;4.70;99.90;;;;;;5090466;28;20172;-85
2022/12/30 08:34:05;;;;;;;20.40;5.78;;;4.70;99.90;;;;;;5075021;28;20051;-85
2022/12/30 08:36:52;;;;;;;19.98;6.57;;;4.70;99.90;;;;;;5097103;28;20109;-77
2022/12/30 08:39:38;;;;;;;18.25;4.65;;;4.70;99.90;;;;;;5092898;28;20044;-78
2022/12/30 08:42:24;;;;;;;21.70;5.85;;;4.80;99.90;;;;;;5092132;28;20059;-77
2022/12/30 08:45:10;;;;;;;10.70;3.60;;;4.80;99.90;;;;;;5091188;28;20176;-78
2022/12/30 08:47:57;;;;;;;14.00;4.15;;;4.80;99.90;;;;;;5092331;28;20067;-79
2022/12/30 08:50:43;;;;;;;13.88;3.75;;;4.90;99.90;;;;;;5077985;28;20048;-79
2022/12/30 08:53:30;;;;;;;21.10;4.30;;;4.90;99.90;;;;;;5090371;28;20131;-78
2022/12/30 08:56:21;;;;;;;12.18;3.60;;;4.90;99.90;;;;;;5091114;28;20085;-80
2022/12/30 08:59:10;;;;;;;13.85;3.15;;;5.00;99.90;;;;;;5072822;28;20056;-78
2022/12/30 09:01:56;;;;;;;23.73;5.40;;;5.00;99.90;;;;;;5071898;28;20130;-82
2022/12/30 09:04:43;;;;;;;13.50;3.50;;;5.00;99.90;;;;;;5078841;28;20044;-77
2022/12/30 09:07:29;;;;;;;17.15;3.47;;;5.10;99.90;;;;;;5075326;28;20109;-80
2022/12/30 09:10:16;;;;;;;19.92;3.47;;;5.10;99.90;;;;;;5061815;28;20058;-77
2022/12/30 09:13:02;;;;;;;15.95;3.70;;;5.20;99.90;;;;;;5059115;28;20060;-78
2022/12/30 09:15:48;;;;;;;15.88;3.53;;;5.20;99.90;;;;;;5089414;28;20457;-79
2022/12/30 09:18:35;;;;;;;20.83;3.50;;;5.20;99.90;;;;;;5089566;28;20051;-78
2022/12/30 09:21:21;;;;;;;13.10;3.15;;;5.20;99.90;;;;;;5072062;28;20676;-77
2022/12/30 09:24:09;;;;;;;24.83;5.65;;;5.20;99.90;;;;;;5082904;28;20048;-79
2022/12/30 09:26:55;;;;;;;21.98;5.13;;;5.30;99.90;;;;;;5092770;28;20048;-82
2022/12/30 09:29:41;;;;;;;22.70;4.40;;;5.20;99.90;;;;;;5094350;28;20048;-79
2022/12/30 09:32:27;;;;;;;13.85;3.13;;;5.20;99.90;;;;;;5102369;28;20423;-78
2022/12/30 09:35:14;;;;;;;15.45;3.83;;;5.20;99.90;;;;;;5082406;28;20208;-77
2022/12/30 09:38:01;;;;;;;20.40;4.00;;;5.30;99.90;;;;;;5094527;28;20068;-78
2022/12/30 09:41:15;;;;;;;17.08;3.67;;;5.30;99.90;;;;;;5095760;28;20060;-77
2022/12/30 09:44:14;;;;;;;17.80;3.63;;;5.30;99.90;;;;;;5076849;28;20143;-78
2022/12/30 09:47:28;;;;;;;15.07;3.33;;;5.30;99.90;;;;;;5095731;28;20130;-78
2022/12/30 09:50:41;;;;;;;13.70;3.40;;;5.40;99.90;;;;;;5094709;28;20674;-77
2022/12/30 09:53:30;;;;;;;17.75;3.65;;;5.40;99.90;;;;;;5090794;28;20135;-78
2022/12/30 09:56:27;;;;;;;13.57;4.65;;;5.40;99.90;;;;;;5093256;28;20135;-78
2022/12/30 09:59:20;;;;;;;14.50;4.25;;;5.40;99.90;;;;;;5093035;28;20488;-79
2022/12/30 10:02:20;;;;;;;11.00;3.35;;;5.50;99.90;;;;;;5094438;28;20458;-78
2022/12/30 10:05:12;;;;;;;16.38;3.92;;;5.50;99.90;;;;;;5090610;28;20482;-78
2022/12/30 10:08:17;;;;;;;18.58;5.35;;;5.50;99.90;;;;;;5093618;28;20051;-77
2022/12/30 10:11:13;;;;;;;18.38;3.08;;;5.60;99.90;;;;;;5093224;28;20093;-79
2022/12/30 10:14:18;;;;;;;15.35;3.05;;;5.60;99.90;;;;;;5060555;28;20068;-77
2022/12/30 10:17:29;;;;;;;17.50;3.60;;;5.70;99.90;;;;;;5094076;28;20052;-78
2022/12/30 10:20:48;;;;;;;14.77;3.40;;;5.70;99.90;;;;;;5075004;28;20048;-79
2022/12/30 10:23:53;;;;;;;11.98;3.15;;;5.80;99.90;;;;;;5074636;28;20052;-88
2022/12/30 10:26:49;;;;;;;12.00;2.85;;;5.80;99.90;;;;;;5074856;28;20476;-84
2022/12/30 10:29:41;;;;;;;13.95;3.78;;;5.90;99.90;;;;;;5093138;28;20056;-79
2022/12/30 10:32:31;;;;;;;10.98;3.15;;;6.00;99.90;;;;;;5075636;28;20495;-86
2022/12/30 10:35:30;;;;;;;14.63;3.00;;;6.00;99.90;;;;;;5097982;28;20127;-81
2022/12/30 10:38:20;;;;;;;10.82;2.70;;;6.10;99.90;;;;;;5085768;28;20388;-80
2022/12/30 10:41:39;;;;;;;13.57;2.35;;;6.20;99.90;;;;;;5073999;28;20044;-85
2022/12/30 10:44:42;;;;;;;9.57;2.47;;;6.30;99.90;;;;;;5037517;28;20555;-84
2022/12/30 10:47:40;;;;;;;13.13;3.15;;;6.40;99.90;;;;;;5074079;28;20048;-80
2022/12/30 10:50:35;;;;;;;11.20;2.67;;;6.50;99.90;;;;;;5074145;28;20131;-81
2022/12/30 10:53:24;;;;;;;12.20;3.08;;;6.60;99.90;;;;;;5075031;28;20052;-80
2022/12/30 10:56:39;;;;;;;12.40;2.30;;;6.80;99.90;;;;;;5092257;28;20065;-82
2022/12/30 10:59:27;;;;;;;15.85;3.50;;;6.90;99.90;;;;;;5073558;28;20040;-81
2022/12/30 11:02:22;;;;;;;14.07;3.00;;;7.00;99.90;;;;;;5073702;28;20506;-81
2022/12/30 11:05:28;;;;;;;12.55;2.65;;;7.20;99.90;;;;;;5098940;28;20047;-80
2022/12/30 11:08:29;;;;;;;18.77;3.33;;;7.20;99.90;;;;;;5092140;28;20109;-82
2022/12/30 11:11:16;;;;;;;9.43;2.40;;;7.20;99.90;;;;;;5093819;28;20135;-80
2022/12/30 11:17:09;;;;;;;14.15;3.22;;;7.00;99.90;;;;;;5091148;28;20062;-81
2022/12/30 11:20:02;;;;;;;9.55;2.28;;;7.00;99.90;;;;;;5091848;28;20050;-84
2022/12/30 11:22:50;;;;;;;10.63;2.67;;;6.90;99.90;;;;;;5091730;28;20344;-81
2022/12/30 11:25:43;;;;;;;11.57;2.58;;;6.90;99.90;;;;;;5091582;28;20048;-85
2022/12/30 11:29:02;;;;;;;10.30;2.75;;;6.90;99.90;;;;;;5065087;28;20052;-83
2022/12/30 11:31:53;;;;;;;14.35;2.78;;;6.90;99.90;;;;;;5082216;28;20043;-82
2022/12/30 11:34:43;;;;;;;9.15;2.95;;;6.80;99.90;;;;;;5073031;28;20079;-80
2022/12/30 11:37:35;;;;;;;10.18;2.67;;;6.80;99.90;;;;;;5091017;28;20131;-84
2022/12/30 11:40:31;;;;;;;8.00;2.40;;;6.80;99.90;;;;;;5072880;28;20814;-83
2022/12/30 11:43:20;;;;;;;12.75;2.42;;;6.80;99.90;;;;;;5091418;28;20051;-83
2022/12/30 11:46:09;;;;;;;11.98;2.35;;;6.80;99.90;;;;;;5097329;28;20181;-80
2022/12/30 11:48:59;;;;;;;12.02;3.28;;;6.90;99.90;;;;;;5079274;28;20070;-84
2022/12/30 11:51:50;;;;;;;9.43;2.58;;;6.90;99.90;;;;;;5073440;28;20048;-81
2022/12/30 11:54:39;;;;;;;8.27;1.98;;;7.00;99.90;;;;;;5091596;28;20048;-85
2022/12/30 11:57:40;;;;;;;7.97;1.63;;;7.00;99.90;;;;;;5073486;28;20169;-82
2022/12/30 12:00:37;;;;;;;4.65;1.60;;;7.00;99.90;;;;;;5091074;28;20868;-82
2022/12/30 12:03:26;;;;;;;14.68;3.63;;;7.00;99.90;;;;;;5073784;28;20483;-84
2022/12/30 12:06:12;;;;;;;9.57;2.03;;;7.00;99.90;;;;;;5091154;28;20120;-82
2022/12/30 12:09:14;;;;;;;6.75;2.45;;;7.10;99.90;;;;;;5072974;28;20058;-80
2022/12/30 12:12:06;;;;;;;9.52;3.00;;;7.10;99.90;;;;;;5072504;28;20044;-80
2022/12/30 12:14:52;;;;;;;8.13;2.13;;;7.20;99.90;;;;;;5091133;28;20129;-82
2022/12/30 12:17:56;;;;;;;13.98;2.78;;;7.20;99.90;;;;;;5090482;28;20047;-81
2022/12/30 12:21:17;;;;;;;9.63;2.30;;;7.20;99.90;;;;;;5071933;28;20580;-80
2022/12/30 12:24:35;;;;;;;12.88;2.50;;;7.20;99.90;;;;;;5091338;28;20507;-84
2022/12/30 12:27:22;;;;;;;8.65;1.63;;;7.20;99.90;;;;;;5078373;28;20052;-83
2022/12/30 12:30:12;;;;;;;6.35;1.85;;;7.20;99.90;;;;;;5098568;28;20048;-80
2022/12/30 12:33:05;;;;;;;8.20;3.03;;;7.30;99.90;;;;;;5071474;28;20052;-82
2022/12/30 12:36:05;;;;;;;7.35;2.00;;;7.30;99.90;;;;;;5071586;28;20051;-81
2022/12/30 12:39:00;;;;;;;7.03;1.80;;;7.30;99.90;;;;;;5058586;28;20117;-82
2022/12/30 12:42:10;;;;;;;9.02;2.17;;;7.30;99.90;;;;;;5071072;28;20050;-79
2022/12/30 12:45:22;;;;;;;7.47;2.03;;;7.40;99.90;;;;;;5058011;28;20060;-79
2022/12/30 12:49:04;;;;;;;8.40;1.70;;;7.40;99.90;;;;;;5071812;28;20048;-82
2022/12/30 12:52:18;;;;;;;10.48;2.20;;;7.40;99.90;;;;;;5018963;28;20099;-82
2022/12/30 12:55:17;;;;;;;5.95;1.65;;;7.40;99.90;;;;;;5091028;28;20051;-81
2022/12/30 12:58:16;;;;;;;6.40;1.77;;;7.40;99.90;;;;;;5093086;28;20092;-81
2022/12/30 13:01:38;;;;;;;7.43;1.48;;;7.40;99.90;;;;;;5096911;28;20047;-80
2022/12/30 13:04:35;;;;;;;8.77;1.83;;;7.40;99.90;;;;;;5091210;28;20126;-80
2022/12/30 13:07:36;;;;;;;;;;;7.50;99.90;;;;;;5072066;28;20056;-82
2022/12/30 13:10:28;;;;;;;6.57;1.27;;;7.50;99.90;;;;;;5058135;28;19973;-81
2022/12/30 13:13:47;;;;;;;6.05;1.88;;;7.50;99.90;;;;;;5071829;28;20050;-84
2022/12/30 13:16:38;;;;;;;6.13;1.30;;;7.50;99.90;;;;;;5037207;28;20048;-83
2022/12/30 13:19:33;;;;;;;7.25;2.03;;;7.50;99.90;;;;;;5082918;28;20048;-81
2022/12/30 13:22:24;;;;;;;6.55;1.60;;;7.50;99.90;;;;;;5090274;28;20135;-82
2022/12/30 13:25:25;;;;;;;8.60;1.60;;;7.60;99.90;;;;;;5089383;28;20063;-83
2022/12/30 13:28:27;;;;;;;6.90;1.75;;;7.70;99.90;;;;;;5070917;28;20488;-81
2022/12/30 13:31:45;;;;;;;7.95;2.58;;;7.70;99.90;;;;;;5075567;28;20044;-82
2022/12/30 13:34:42;;;;;;;6.38;1.67;;;7.80;99.90;;;;;;5089427;28;20062;-82
2022/12/30 13:37:46;;;;;;;7.68;2.47;;;7.80;99.90;;;;;;5090695;28;20036;-82
2022/12/30 13:40:59;;;;;;;15.48;4.03;;;7.80;99.90;;;;;;5089953;28;20082;-82
2022/12/30 13:43:56;;;;;;;8.40;2.92;;;7.90;99.90;;;;;;5088914;28;20082;-84
2022/12/30 13:46:52;;;;;;;11.60;2.83;;;8.00;99.90;;;;;;5072036;28;20404;-79
2022/12/30 13:49:40;;;;;;;8.45;1.92;;;8.00;99.90;;;;;;5074568;28;20052;-81
2022/12/30 13:52:28;;;;;;;7.65;1.80;;;8.10;99.90;;;;;;5078462;28;20103;-83
2022/12/30 13:55:38;;;;;;;6.60;1.85;;;8.10;99.90;;;;;;5099758;28;20070;-81
2022/12/30 13:58:31;;;;;;;13.27;2.20;;;8.10;99.90;;;;;;5074924;28;20621;-80
2022/12/30 14:01:31;;;;;;;8.23;1.67;;;8.10;99.90;;;;;;5070863;28;20492;-79
2022/12/30 14:04:32;;;;;;;12.75;3.70;;;8.20;99.90;;;;;;5071182;28;20056;-78
2022/12/30 14:07:37;;;;;;;8.55;1.40;;;8.30;99.90;;;;;;5072423;28;20055;-80
2022/12/30 14:10:43;;;;;;;7.17;1.63;;;8.20;99.90;;;;;;5074074;28;20056;-81
2022/12/30 14:13:30;;;;;;;8.63;1.30;;;8.30;99.90;;;;;;5093579;28;20048;-81
2022/12/30 14:16:41;;;;;;;12.68;2.00;;;8.30;99.90;;;;;;5078650;28;20048;-82
2022/12/30 14:19:39;;;;;;;6.00;1.55;;;8.30;99.90;;;;;;5074146;28;20048;-80
2022/12/30 14:22:41;;;;;;;9.00;1.60;;;8.30;99.90;;;;;;5074708;28;20173;-80
2022/12/30 14:25:39;;;;;;;6.63;1.25;;;8.30;99.90;;;;;;5075914;28;20052;-80
2022/12/30 14:28:26;;;;;;;5.32;1.10;;;8.30;99.90;;;;;;5092860;28;20094;-83
2022/12/30 14:31:45;;;;;;;6.55;1.20;;;8.30;99.90;;;;;;5092384;28;20044;-82
2022/12/30 14:34:33;;;;;;;8.40;1.77;;;8.30;99.90;;;;;;5092021;28;20479;-81
2022/12/30 14:37:22;;;;;;;7.63;1.10;;;8.30;99.90;;;;;;5080656;28;20060;-81
2022/12/30 14:40:33;;;;;;;7.00;1.63;;;8.40;99.90;;;;;;5082998;28;20048;-80
2022/12/30 14:43:20;;;;;;;7.57;1.67;;;8.30;99.90;;;;;;5044015;28;20044;-84
2022/12/30 14:46:40;;;;;;;9.77;2.67;;;8.30;99.90;;;;;;5093353;28;20071;-81
2022/12/30 14:49:33;;;;;;;9.88;1.23;;;8.30;99.90;;;;;;5095364;28;20087;-83
2022/12/30 14:52:23;;;;;;;7.03;1.60;;;8.20;99.90;;;;;;5092530;28;20493;-84
2022/12/30 14:55:20;;;;;;;7.78;1.65;;;8.20;99.90;;;;;;5077519;28;20044;-82
2022/12/30 14:58:11;;;;;;;6.47;1.60;;;8.10;99.90;;;;;;5095511;28;20160;-82
2022/12/30 15:00:58;;;;;;;9.45;1.77;;;8.10;99.90;;;;;;5092164;28;20055;-80
2022/12/30 15:03:44;;;;;;;7.20;1.80;;;8.10;99.90;;;;;;5073739;28;20060;-78
2022/12/30 15:06:31;;;;;;;9.35;1.70;;;8.00;99.90;;;;;;5072821;28;20080;-79
2022/12/30 15:09:24;;;;;;;5.60;2.20;;;8.00;99.90;;;;;;5072842;28;20130;-82
2022/12/30 15:12:12;;;;;;;9.00;1.65;;;8.00;99.90;;;;;;5091085;28;20052;-79
2022/12/30 15:14:59;;;;;;;8.27;1.50;;;8.10;99.90;;;;;;5092642;28;20044;-79
2022/12/30 15:17:45;;;;;;;7.40;1.30;;;8.10;99.90;;;;;;5060711;28;20101;-83
2022/12/30 15:20:32;;;;;;;7.72;1.40;;;8.10;99.90;;;;;;5075820;28;20139;-80
2022/12/30 15:23:20;;;;;;;8.13;1.95;;;8.20;99.90;;;;;;5075688;28;20144;-81
2022/12/30 15:26:08;;;;;;;8.43;1.48;;;8.20;99.90;;;;;;5054112;28;20056;-77
2022/12/30 15:28:55;;;;;;;4.78;1.30;;;8.20;99.90;;;;;;5054143;28;20056;-79
2022/12/30 15:31:51;;;;;;;7.53;1.58;;;8.30;99.90;;;;;;5072221;28;20122;-78
2022/12/30 15:34:39;;;;;;;12.07;2.03;;;8.30;99.90;;;;;;5074408;28;20452;-79
2022/12/30 15:37:30;;;;;;;7.32;2.30;;;8.20;99.90;;;;;;5076967;28;20131;-85
2022/12/30 15:40:24;;;;;;;6.65;1.50;;;8.20;99.90;;;;;;5045311;28;20106;-82
2022/12/30 15:43:16;;;;;;;6.28;2.13;;;8.10;99.90;;;;;;5070888;28;20088;-81
2022/12/30 15:46:04;;;;;;;8.65;1.83;;;8.10;99.90;;;;;;5052849;28;20139;-81
2022/12/30 15:49:13;;;;;;;4.13;1.48;;;8.00;99.90;;;;;;5070193;28;20053;-80
2022/12/30 15:52:13;;;;;;;8.57;2.20;;;8.00;99.90;;;;;;5053089;28;20072;-80
2022/12/30 15:55:02;;;;;;;6.78;1.60;;;8.00;99.90;;;;;;5051288;28;20070;-80
2022/12/30 15:57:50;;;;;;;7.88;2.45;;;7.90;99.90;;;;;;5069955;28;20626;-81